KELN/ELN METAR and TAF weather

Enter ICAO airport designator
Station Type Date Time Source
KELN METAR 2020/04/04 19:53 UTC NOAA

KELN 041953Z AUTO 03003KT 10SM OVC050 07/M07 A2975 RMK AO2 SLP087 T00721067


Station Type Date Time Source
KELN Decoded METAR 2020/04/04 19:53 UTC NOAA

ELLENSBURG BOWERS FIELD, WA, United States (KELN) 47-02N 120-32W 519M
Apr 04, 2020 - 03:53 PM EDT / 2020.04.04 1953 UTC
Wind: from the NNE (030 degrees) at 3 MPH (3 KT):0
Visibility: 10 mile(s):0
Sky conditions: overcast
Temperature: 45.0 F (7.2 C)
Dew Point: 19.9 F (-6.7 C)
Relative Humidity: 36%
Pressure (altimeter): 29.75 in. Hg (1007 hPa)
ob: KELN 041953Z AUTO 03003KT 10SM OVC050 07/M07 A2975 RMK AO2 SLP087 T00721067
cycle: 20

Station Type Date Time Source
KELN TAF UTC NOAA

Error!

Example: see airport list